Austin, Colorado
Current Conditions -  °F | °C
As of 5:35 AM on Monday 24 Nov 2014 (Local Time) from KAJZ Reporting Station
Overcast Overcast  
Wind Chill: -3°   Ceiling: 8000
Heat Index: -3°   Visibility: 10mi
Dew Point: -8°   Wind: 3mph
Humidity: 71%   Direction: 50°NE
Pressure: 30.15"   Gusts: NA
Location:  38.78°N, 107.95°W
Report Text: KAJZ 241235Z AUTO 05003KT 10SM SCT055 OVC080 M03/M08 A3015 RMK AO2 T10351080
Loading
Personal Weather Stations






























Interactive Weather Map New forecast layout! Learn more

10-Day Weather Forecast

Advertisements
Track Severe Weather on mobile